createdAt,value
2023-04-29T00:00:18.015Z,57.29
2023-04-29T00:03:12.393Z,57.56
2023-04-29T00:05:45.864Z,57.53
2023-04-29T00:08:19.388Z,57.37
2023-04-29T00:10:53.399Z,57.59
2023-04-29T00:13:31.412Z,57.72
2023-04-29T00:16:13.990Z,57.64
2023-04-29T00:18:45.775Z,57.87
2023-04-29T00:21:32.701Z,58.03
2023-04-29T00:24:02.676Z,58.06
2023-04-29T00:26:35.447Z,58.07
2023-04-29T00:29:07.270Z,58.06
2023-04-29T00:31:39.942Z,58.01
2023-04-29T00:34:11.598Z,58.16
2023-04-29T00:36:55.845Z,58.27
2023-04-29T00:39:33.515Z,58.46
2023-04-29T00:42:12.302Z,58.26
2023-04-29T00:44:48.321Z,58.65
2023-04-29T00:47:20.174Z,58.69
2023-04-29T00:50:00.786Z,58.60
2023-04-29T00:52:33.529Z,58.77
2023-04-29T00:55:20.246Z,59.05
2023-04-29T00:57:53.024Z,59.23
2023-04-29T01:00:26.447Z,59.43
2023-04-29T01:02:59.178Z,59.79
2023-04-29T01:05:32.808Z,59.61
2023-04-29T01:08:27.223Z,59.86
2023-04-29T01:11:09.009Z,59.82
2023-04-29T01:13:50.236Z,60.07
2023-04-29T01:16:31.524Z,60.06
2023-04-29T01:19:19.029Z,60.14
2023-04-29T01:21:52.006Z,59.87
2023-04-29T01:24:29.317Z,60.31
2023-04-29T01:27:14.206Z,60.27
2023-04-29T01:30:12.741Z,60.49
2023-04-29T01:32:55.167Z,60.71
2023-04-29T01:35:46.629Z,60.91
2023-04-29T01:38:35.165Z,60.80
2023-04-29T01:41:14.803Z,60.74
2023-04-29T01:43:52.504Z,60.91
2023-04-29T01:46:31.338Z,60.89
2023-04-29T01:49:05.902Z,60.83
2023-04-29T01:51:37.994Z,61.23
2023-04-29T01:54:11.288Z,61.30
2023-04-29T01:56:52.776Z,61.09
2023-04-29T01:59:41.977Z,61.26
2023-04-29T02:02:37.174Z,61.60
2023-04-29T02:05:19.868Z,61.60
2023-04-29T02:07:57.636Z,61.64
2023-04-29T02:10:38.522Z,61.63
2023-04-29T02:13:32.003Z,61.72
2023-04-29T02:16:12.292Z,61.98
2023-04-29T02:18:55.893Z,61.82
2023-04-29T02:21:28.066Z,61.74
2023-04-29T02:23:59.722Z,61.80
2023-04-29T02:26:32.630Z,61.85
2023-04-29T02:29:06.191Z,61.90
2023-04-29T02:31:40.210Z,62.01
2023-04-29T02:34:13.827Z,61.82
2023-04-29T02:36:47.172Z,61.89
2023-04-29T02:39:20.983Z,61.81
2023-04-29T02:42:02.231Z,61.75
2023-04-29T02:44:36.309Z,61.92
2023-04-29T02:47:11.922Z,62.07
2023-04-29T02:49:49.816Z,62.11
2023-04-29T02:52:45.470Z,62.29
2023-04-29T02:55:19.764Z,62.10
2023-04-29T02:58:00.966Z,62.23
2023-04-29T03:00:34.580Z,62.28
2023-04-29T03:03:09.609Z,62.21
2023-04-29T03:05:44.014Z,62.21
2023-04-29T03:08:17.689Z,62.32
2023-04-29T03:10:53.252Z,62.32
2023-04-29T03:13:27.993Z,62.28
2023-04-29T03:16:00.953Z,62.61
2023-04-29T03:18:30.992Z,62.33
2023-04-29T03:21:09.388Z,62.62
2023-04-29T03:23:44.329Z,62.59
2023-04-29T03:26:19.334Z,62.43
2023-04-29T03:28:51.719Z,62.61
2023-04-29T03:31:30.263Z,62.46
2023-04-29T03:34:01.964Z,62.65
2023-04-29T03:36:34.868Z,62.77
2023-04-29T03:39:19.673Z,62.55
2023-04-29T03:41:55.975Z,62.81
2023-04-29T03:44:30.756Z,62.83
2023-04-29T03:47:08.553Z,62.84
2023-04-29T03:49:43.300Z,62.98
2023-04-29T03:52:18.375Z,63.05
2023-04-29T03:54:51.297Z,63.06
2023-04-29T03:57:25.111Z,62.88
2023-04-29T04:00:03.699Z,62.95
2023-04-29T04:02:54.449Z,63.15
2023-04-29T04:05:30.507Z,63.11
2023-04-29T04:08:11.401Z,63.21
2023-04-29T04:11:15.170Z,63.18
2023-04-29T04:13:52.126Z,63.32
2023-04-29T04:16:25.970Z,63.29
2023-04-29T04:18:57.674Z,63.57
2023-04-29T04:21:29.751Z,63.49
2023-04-29T04:24:10.781Z,63.54
2023-04-29T04:26:43.909Z,63.56
2023-04-29T04:29:23.399Z,63.76
2023-04-29T04:32:13.904Z,63.55
2023-04-29T04:34:46.893Z,63.66
2023-04-29T04:37:20.241Z,63.81
2023-04-29T04:39:55.850Z,63.83
2023-04-29T04:42:28.344Z,63.60
2023-04-29T04:45:01.486Z,63.71
2023-04-29T04:47:53.686Z,63.65
2023-04-29T04:50:36.225Z,63.67
2023-04-29T04:53:08.262Z,63.56
2023-04-29T04:55:54.521Z,63.41
2023-04-29T04:58:31.406Z,63.33
2023-04-29T05:01:06.278Z,63.48
2023-04-29T05:03:58.054Z,63.46
2023-04-29T05:06:37.908Z,63.26
2023-04-29T05:09:09.185Z,63.14
2023-04-29T05:11:44.108Z,63.27
2023-04-29T05:14:18.024Z,63.19
2023-04-29T05:16:51.829Z,63.03
2023-04-29T05:19:23.879Z,63.11
2023-04-29T05:21:56.770Z,62.93
2023-04-29T05:24:31.744Z,63.14
2023-04-29T05:27:06.187Z,62.91
2023-04-29T05:29:38.951Z,62.91
2023-04-29T05:32:14.060Z,62.83
2023-04-29T05:34:47.683Z,62.60
2023-04-29T05:37:19.434Z,62.53
2023-04-29T05:40:10.737Z,62.37
2023-04-29T05:42:42.828Z,62.09
2023-04-29T05:45:16.746Z,62.01
2023-04-29T05:47:54.402Z,61.87
2023-04-29T05:50:27.316Z,61.41
2023-04-29T05:52:58.889Z,61.24
2023-04-29T05:55:33.407Z,61.11
2023-04-29T05:58:08.376Z,60.74
2023-04-29T06:00:44.697Z,60.39
2023-04-29T06:03:21.296Z,60.45
2023-04-29T06:06:00.570Z,60.31
2023-04-29T06:08:55.363Z,60.08
2023-04-29T06:11:32.661Z,60.08
2023-04-29T06:14:06.929Z,59.92
2023-04-29T06:16:39.587Z,59.92
2023-04-29T06:19:15.042Z,59.80
2023-04-29T06:21:47.826Z,59.69
2023-04-29T06:24:20.602Z,59.46
2023-04-29T06:26:54.099Z,59.41
2023-04-29T06:29:27.172Z,59.30
2023-04-29T06:32:01.263Z,59.09
2023-04-29T06:34:34.139Z,58.91
2023-04-29T06:37:43.704Z,58.73
2023-04-29T06:40:47.469Z,58.51
2023-04-29T06:43:43.375Z,58.71
2023-04-29T06:46:33.786Z,58.38
2023-04-29T06:49:10.143Z,58.38
2023-04-29T06:51:43.914Z,58.53
2023-04-29T06:54:16.811Z,58.38
2023-04-29T06:56:51.356Z,58.38
2023-04-29T06:59:24.526Z,58.47
2023-04-29T07:01:58.632Z,58.18
2023-04-29T07:04:31.043Z,58.44
2023-04-29T07:07:03.719Z,58.25
2023-04-29T07:09:38.086Z,58.18
2023-04-29T07:12:10.597Z,57.77
2023-04-29T07:14:43.569Z,57.76
2023-04-29T07:17:20.212Z,57.76
2023-04-29T07:19:53.518Z,57.96
2023-04-29T07:22:26.750Z,57.89
2023-04-29T07:25:00.070Z,57.70
2023-04-29T07:27:32.801Z,57.60
2023-04-29T07:30:06.584Z,57.69
2023-04-29T07:32:40.669Z,57.63
2023-04-29T07:35:13.463Z,57.67
2023-04-29T07:37:47.123Z,57.83
2023-04-29T07:40:19.251Z,57.35
2023-04-29T07:42:52.876Z,57.26
2023-04-29T07:45:27.246Z,57.30
2023-04-29T07:48:02.205Z,57.88
2023-04-29T07:50:38.333Z,57.54
2023-04-29T07:53:11.413Z,57.34
2023-04-29T07:55:44.603Z,57.37
2023-04-29T07:58:19.257Z,57.07
2023-04-29T08:00:51.058Z,57.54
2023-04-29T08:03:23.694Z,57.48
2023-04-29T08:06:03.183Z,57.92
2023-04-29T08:08:37.678Z,58.08
2023-04-29T08:11:10.885Z,58.45
2023-04-29T08:13:45.059Z,58.67
2023-04-29T08:16:17.753Z,59.13
2023-04-29T08:18:48.544Z,59.22
2023-04-29T08:21:21.605Z,59.27
2023-04-29T08:23:54.655Z,59.27
2023-04-29T08:26:26.911Z,59.24
2023-04-29T08:28:57.885Z,59.00
2023-04-29T08:31:30.977Z,58.90
2023-04-29T08:34:03.407Z,58.85
2023-04-29T08:36:45.128Z,59.10
2023-04-29T08:39:18.565Z,59.14
2023-04-29T08:41:50.902Z,59.16
2023-04-29T08:44:23.257Z,59.09
2023-04-29T08:46:58.692Z,58.90
2023-04-29T08:49:32.485Z,58.78
2023-04-29T08:52:04.913Z,58.96
2023-04-29T08:54:39.038Z,59.40
2023-04-29T08:57:14.775Z,59.54
2023-04-29T08:59:52.486Z,59.57
2023-04-29T09:02:25.930Z,59.69
2023-04-29T09:05:06.063Z,59.76
2023-04-29T09:07:38.164Z,60.07
2023-04-29T09:10:15.714Z,59.84
2023-04-29T09:12:47.299Z,59.96
2023-04-29T09:15:19.613Z,59.93
2023-04-29T09:17:52.762Z,59.70
2023-04-29T09:20:33.347Z,59.77
2023-04-29T09:23:05.839Z,59.53
2023-04-29T09:25:38.293Z,59.76
2023-04-29T09:28:19.057Z,59.61
2023-04-29T09:30:53.707Z,59.49
2023-04-29T09:33:28.510Z,59.46
2023-04-29T09:36:02.481Z,59.39
2023-04-29T09:38:35.144Z,59.17
2023-04-29T09:41:17.995Z,58.99
2023-04-29T09:44:09.539Z,59.02
2023-04-29T09:46:42.470Z,58.85
2023-04-29T09:49:27.687Z,58.97
2023-04-29T09:52:02.721Z,58.93
2023-04-29T09:54:35.011Z,58.96
2023-04-29T09:57:14.384Z,58.95
2023-04-29T09:59:47.083Z,58.76
2023-04-29T10:02:21.063Z,58.87
2023-04-29T10:04:58.383Z,58.37
2023-04-29T10:07:32.689Z,58.14
2023-04-29T10:10:06.598Z,57.92
2023-04-29T10:12:40.299Z,58.25
2023-04-29T10:15:20.899Z,58.17
2023-04-29T10:17:59.588Z,57.89
2023-04-29T10:20:32.123Z,57.83
2023-04-29T10:23:07.391Z,58.28
2023-04-29T10:25:40.716Z,58.46
2023-04-29T10:28:16.248Z,58.60
2023-04-29T10:30:51.074Z,58.77
2023-04-29T10:33:23.413Z,58.66
2023-04-29T10:35:59.939Z,58.67
2023-04-29T10:38:39.688Z,58.62
2023-04-29T10:41:21.719Z,58.53
2023-04-29T10:43:59.067Z,58.43
2023-04-29T10:46:33.315Z,58.29
2023-04-29T10:49:06.032Z,57.65
2023-04-29T10:51:45.257Z,57.10
2023-04-29T10:54:25.336Z,57.16
2023-04-29T10:56:56.751Z,56.79
2023-04-29T10:59:48.500Z,56.67
2023-04-29T11:02:21.375Z,56.81
2023-04-29T11:05:11.797Z,56.67
2023-04-29T11:07:44.499Z,56.54
2023-04-29T11:10:20.483Z,56.68
2023-04-29T11:13:12.247Z,56.25
2023-04-29T11:15:45.965Z,56.04
2023-04-29T11:18:18.447Z,56.26
2023-04-29T11:21:15.632Z,56.34
2023-04-29T11:23:48.719Z,55.72
2023-04-29T11:26:26.454Z,55.38
2023-04-29T11:28:59.889Z,55.52
2023-04-29T11:31:35.405Z,55.50
2023-04-29T11:34:09.508Z,55.53
2023-04-29T11:36:42.102Z,55.19
2023-04-29T11:39:14.447Z,55.28
2023-04-29T11:41:45.713Z,55.66
2023-04-29T11:44:25.656Z,56.37
2023-04-29T11:47:05.618Z,56.74
2023-04-29T11:49:39.186Z,57.10
2023-04-29T11:52:13.243Z,56.76
2023-04-29T11:54:52.384Z,57.16
2023-04-29T11:57:24.618Z,57.02
2023-04-29T11:59:56.632Z,56.90
2023-04-29T12:02:33.105Z,56.79
2023-04-29T12:05:09.051Z,56.81
2023-04-29T12:07:42.488Z,56.46
2023-04-29T12:10:13.972Z,56.07
2023-04-29T12:12:49.872Z,55.49
2023-04-29T12:15:23.743Z,55.43
2023-04-29T12:17:55.221Z,55.40
2023-04-29T12:20:26.887Z,55.35
2023-04-29T12:23:09.104Z,54.90
2023-04-29T12:25:42.008Z,55.04
2023-04-29T12:28:17.199Z,54.79
2023-04-29T12:30:51.385Z,54.44
2023-04-29T12:33:26.003Z,54.33
2023-04-29T12:35:59.176Z,54.25
2023-04-29T12:38:34.327Z,54.28
2023-04-29T12:41:08.007Z,54.02
2023-04-29T12:43:41.051Z,54.18
2023-04-29T12:46:14.505Z,54.05
2023-04-29T12:48:48.670Z,54.23
2023-04-29T12:51:20.416Z,54.00
2023-04-29T12:53:53.178Z,54.18
2023-04-29T12:56:25.349Z,54.17
2023-04-29T12:58:56.317Z,54.21
2023-04-29T13:01:29.741Z,53.94
2023-04-29T13:04:01.705Z,53.97
2023-04-29T13:06:34.344Z,53.82
2023-04-29T13:09:18.982Z,53.66
2023-04-29T13:11:52.950Z,53.85
2023-04-29T13:14:42.252Z,54.01
2023-04-29T13:17:17.155Z,54.01
2023-04-29T13:19:52.527Z,53.73
2023-04-29T13:22:25.019Z,53.95
2023-04-29T13:25:13.675Z,53.65
2023-04-29T13:27:46.710Z,53.22
2023-04-29T13:30:27.848Z,52.88
2023-04-29T13:33:09.374Z,52.91
2023-04-29T13:35:44.507Z,52.96
2023-04-29T13:38:23.777Z,52.84
2023-04-29T13:40:56.302Z,52.78
2023-04-29T13:43:36.606Z,52.86
2023-04-29T13:46:13.366Z,52.43
2023-04-29T13:49:17.342Z,52.34
2023-04-29T13:59:46.745Z,51.35
2023-04-29T14:02:26.006Z,51.47
2023-04-29T14:04:59.352Z,51.32
2023-04-29T14:07:34.630Z,51.49
2023-04-29T14:10:07.256Z,51.41
2023-04-29T14:12:39.898Z,51.19
2023-04-29T14:15:14.195Z,51.30
2023-04-29T14:17:52.352Z,51.70
2023-04-29T14:20:23.969Z,52.02
2023-04-29T14:22:59.102Z,52.15
2023-04-29T14:25:33.936Z,52.23
2023-04-29T14:28:06.285Z,52.09
2023-04-29T14:30:37.387Z,52.05
2023-04-29T14:33:09.435Z,52.28
2023-04-29T14:35:42.382Z,52.32
2023-04-29T14:38:15.592Z,52.16
2023-04-29T14:40:46.204Z,52.23
2023-04-29T14:43:16.577Z,52.49
2023-04-29T14:45:49.261Z,52.69
2023-04-29T14:48:20.431Z,52.91
2023-04-29T14:50:53.470Z,52.95
2023-04-29T14:53:23.648Z,52.80
2023-04-29T14:55:57.448Z,52.73
2023-04-29T14:58:29.318Z,52.55
2023-04-29T15:01:03.702Z,52.39
2023-04-29T15:06:13.856Z,52.32
2023-04-29T15:08:47.696Z,52.53
2023-04-29T15:11:24.037Z,52.54
2023-04-29T15:13:56.308Z,52.50
2023-04-29T15:16:29.836Z,52.58
2023-04-29T15:19:02.260Z,52.52
2023-04-29T15:21:37.246Z,52.68
2023-04-29T15:24:12.449Z,52.93
2023-04-29T15:26:46.002Z,52.84
2023-04-29T15:29:17.842Z,52.69
2023-04-29T15:31:49.779Z,52.69
2023-04-29T15:34:21.873Z,52.84
2023-04-29T15:36:56.802Z,52.88
2023-04-29T15:39:31.532Z,52.74
2023-04-29T15:42:04.575Z,52.98
2023-04-29T15:44:36.841Z,52.91
2023-04-29T15:47:10.703Z,53.01
2023-04-29T15:49:44.680Z,53.34
2023-04-29T15:52:34.817Z,53.54
2023-04-29T15:55:08.043Z,53.53
2023-04-29T15:57:42.604Z,53.62
2023-04-29T16:00:20.851Z,53.66
2023-04-29T16:02:54.576Z,53.79
2023-04-29T16:05:26.715Z,53.88
2023-04-29T16:07:57.798Z,53.95
2023-04-29T16:10:30.282Z,53.97
2023-04-29T16:13:02.093Z,54.13
2023-04-29T16:15:34.367Z,54.36
2023-04-29T16:18:09.409Z,54.29
2023-04-29T16:20:43.280Z,54.14
2023-04-29T16:23:16.985Z,54.25
2023-04-29T16:25:51.174Z,54.26
2023-04-29T16:28:24.589Z,54.33
2023-04-29T16:30:58.797Z,54.41
2023-04-29T16:33:32.322Z,54.51
2023-04-29T16:36:06.000Z,54.67
2023-04-29T16:38:38.552Z,54.51
2023-04-29T16:41:10.556Z,54.53
2023-04-29T16:43:41.801Z,54.53
2023-04-29T16:46:16.994Z,54.58
2023-04-29T16:48:52.734Z,55.06
2023-04-29T16:51:27.440Z,54.90
2023-04-29T16:53:59.442Z,54.94
2023-04-29T16:56:31.985Z,55.11
2023-04-29T16:59:03.705Z,55.19
2023-04-29T17:01:34.988Z,55.21
2023-04-29T17:04:08.363Z,55.36
2023-04-29T17:06:40.186Z,55.34
2023-04-29T17:09:10.999Z,55.28
2023-04-29T17:11:44.048Z,55.28
2023-04-29T17:14:16.517Z,55.56
2023-04-29T17:16:47.641Z,55.59
2023-04-29T17:19:20.006Z,55.54
2023-04-29T17:21:52.936Z,55.86
2023-04-29T17:24:25.452Z,55.97
2023-04-29T17:27:01.315Z,56.04
2023-04-29T17:29:35.311Z,56.05
2023-04-29T17:32:10.763Z,56.25
2023-04-29T17:34:42.647Z,56.16
2023-04-29T17:37:24.902Z,56.43
2023-04-29T17:40:02.063Z,56.59
2023-04-29T17:42:34.371Z,56.72
2023-04-29T17:45:09.679Z,56.78
2023-04-29T17:47:43.480Z,56.80
2023-04-29T17:50:16.160Z,56.86
2023-04-29T17:52:49.105Z,57.07
2023-04-29T17:55:23.069Z,57.22
2023-04-29T17:57:56.412Z,57.66
2023-04-29T18:00:35.121Z,57.90
2023-04-29T18:03:07.198Z,58.41
2023-04-29T18:05:38.589Z,58.72
2023-04-29T18:08:09.961Z,59.00
2023-04-29T18:10:52.684Z,59.27
2023-04-29T18:13:27.350Z,59.35
2023-04-29T18:16:04.074Z,59.37
2023-04-29T18:18:37.460Z,59.39
2023-04-29T18:21:10.984Z,59.57
2023-04-29T18:23:41.998Z,59.69
2023-04-29T18:26:15.505Z,59.78
2023-04-29T18:28:49.138Z,60.32
2023-04-29T18:31:31.662Z,60.96
2023-04-29T18:34:05.877Z,61.64
2023-04-29T18:36:37.361Z,62.01
2023-04-29T18:39:09.743Z,62.46
2023-04-29T18:41:42.154Z,62.87
2023-04-29T18:44:14.468Z,63.16
2023-04-29T18:46:46.407Z,63.30
2023-04-29T18:49:18.824Z,63.47
2023-04-29T18:51:50.537Z,63.65
2023-04-29T18:54:23.464Z,63.85
2023-04-29T18:56:56.508Z,64.75
2023-04-29T18:59:29.744Z,65.61
2023-04-29T19:02:01.961Z,66.12
2023-04-29T19:04:38.335Z,66.87
2023-04-29T19:07:09.911Z,67.36
2023-04-29T19:09:43.287Z,68.12
2023-04-29T19:12:16.587Z,68.78
2023-04-29T19:14:51.422Z,69.91
2023-04-29T19:17:23.201Z,71.04
2023-04-29T19:19:55.638Z,71.82
2023-04-29T19:22:29.528Z,72.78
2023-04-29T19:25:03.902Z,73.56
2023-04-29T19:27:37.328Z,74.39
2023-04-29T19:30:16.621Z,75.10
2023-04-29T19:32:49.782Z,75.89
2023-04-29T19:35:21.606Z,76.95
2023-04-29T19:37:55.746Z,77.21
2023-04-29T19:40:27.065Z,78.12
2023-04-29T19:43:00.917Z,79.00
2023-04-29T19:45:33.388Z,79.61
2023-04-29T19:48:07.204Z,80.02
2023-04-29T19:50:42.228Z,80.52
2023-04-29T19:53:15.000Z,81.27
2023-04-29T19:55:51.708Z,81.98
2023-04-29T19:58:25.476Z,81.86
2023-04-29T20:00:56.652Z,81.79
2023-04-29T20:03:28.698Z,82.02
2023-04-29T20:06:01.165Z,82.58
2023-04-29T20:08:34.839Z,82.70
2023-04-29T20:11:09.342Z,82.66
2023-04-29T20:13:41.994Z,82.81
2023-04-29T20:16:15.428Z,83.42
2023-04-29T20:18:51.322Z,83.77
2023-04-29T20:21:23.271Z,83.66
2023-04-29T20:23:55.757Z,83.67
2023-04-29T20:26:28.378Z,83.76
2023-04-29T20:29:01.928Z,83.81
2023-04-29T20:31:34.207Z,84.17
2023-04-29T20:34:06.568Z,84.19
2023-04-29T20:36:39.529Z,84.60
2023-04-29T20:39:12.189Z,84.81
2023-04-29T20:41:45.586Z,84.69
2023-04-29T20:44:16.244Z,84.88
2023-04-29T20:46:47.581Z,85.10
2023-04-29T20:49:21.552Z,85.37
2023-04-29T20:51:53.589Z,85.46
2023-04-29T20:54:26.681Z,85.66
2023-04-29T20:56:59.559Z,85.91
2023-04-29T20:59:32.071Z,86.07
2023-04-29T21:02:03.226Z,86.00
2023-04-29T21:04:36.097Z,85.98
2023-04-29T21:07:10.728Z,85.66
2023-04-29T21:09:44.015Z,85.79
2023-04-29T21:12:16.152Z,85.72
2023-04-29T21:14:49.072Z,86.11
2023-04-29T21:17:22.290Z,86.17
2023-04-29T21:19:56.194Z,86.15
2023-04-29T21:22:27.635Z,86.24
2023-04-29T21:24:58.971Z,86.05
2023-04-29T21:27:31.711Z,85.99
2023-04-29T21:30:06.500Z,86.04
2023-04-29T21:32:39.032Z,86.12
2023-04-29T21:35:11.956Z,86.19
2023-04-29T21:37:46.403Z,86.31
2023-04-29T21:40:22.607Z,86.73
2023-04-29T21:42:56.222Z,86.94
2023-04-29T21:45:27.746Z,87.03
2023-04-29T21:48:06.165Z,86.97
2023-04-29T21:50:38.983Z,87.08
2023-04-29T21:53:13.193Z,87.19
2023-04-29T21:55:46.902Z,87.28
2023-04-29T21:58:20.344Z,87.31
2023-04-29T22:00:59.297Z,87.48
2023-04-29T22:03:30.061Z,87.59
2023-04-29T22:06:02.171Z,87.50
2023-04-29T22:08:36.350Z,87.36
2023-04-29T22:11:08.979Z,87.30
2023-04-29T22:13:42.943Z,87.05
2023-04-29T22:16:13.464Z,86.47
2023-04-29T22:18:45.703Z,86.12
2023-04-29T22:21:19.811Z,85.45
2023-04-29T22:23:52.964Z,85.19
2023-04-29T22:26:28.055Z,85.07
2023-04-29T22:28:59.633Z,84.95
2023-04-29T22:31:34.456Z,84.79
2023-04-29T22:34:09.093Z,84.49
2023-04-29T22:36:43.128Z,84.18
2023-04-29T22:39:18.205Z,84.30
2023-04-29T22:41:50.112Z,83.82
2023-04-29T22:44:21.940Z,83.57
2023-04-29T22:46:55.706Z,83.76
2023-04-29T22:49:28.337Z,83.67
2023-04-29T22:52:02.171Z,83.61
2023-04-29T22:54:35.948Z,83.47
2023-04-29T22:57:08.419Z,83.71
2023-04-29T22:59:40.379Z,83.43
2023-04-29T23:02:12.440Z,83.64
2023-04-29T23:04:44.839Z,83.93
2023-04-29T23:07:18.632Z,83.96
2023-04-29T23:09:52.459Z,84.09
2023-04-29T23:12:25.678Z,84.14
2023-04-29T23:14:58.194Z,84.12
2023-04-29T23:17:30.436Z,84.00
2023-04-29T23:20:02.654Z,83.95
2023-04-29T23:22:37.081Z,83.93
2023-04-29T23:25:11.753Z,84.05
2023-04-29T23:27:44.218Z,84.23
2023-04-29T23:30:14.203Z,84.20
2023-04-29T23:32:44.300Z,84.28
2023-04-29T23:35:17.626Z,84.14
2023-04-29T23:37:51.368Z,84.13
2023-04-29T23:40:23.387Z,84.23
2023-04-29T23:42:56.565Z,84.26
2023-04-29T23:45:29.782Z,84.05
2023-04-29T23:48:01.755Z,83.96
2023-04-29T23:50:33.850Z,83.75
2023-04-29T23:53:09.492Z,83.83
2023-04-29T23:55:41.010Z,83.75
2023-04-29T23:58:12.669Z,83.91
